»·PEaware :: N953HB KMHV-KSBD

N953HB :: KMHV-KSBD

FLIGHT INFORMATION

Flight Status: Arrived
Operator: Privately registered:
United States
More flights under this callsign
Pilot: Marcin K. (43611)
Aircraft: BEECH AIRCRAFT BONANZA
(BE36)
More flights by this aircraft type
Origin: KMHV Mojave
United States
Destination: KSBD San Bernardino Intl
United States
More flights between these airports :: More routes between these airports
Route: PMD VCV
File this flight plan on PilotEdge
Remarks:
Altitude:
(Current/Filed)
5,500ft
Speed:
(Current/Filed)
160kts
Departed: 05-Apr-23 01:44 PM
Arrived: 05-Apr-23 02:22 PM
Distance/Time
Traveled:
73nm/0:38
Distance/Time
To Go:
Arrived

Flight Plot

Page will automatically refresh every two minutes.

Flight plan parsing failed; only flown route is shown


Map Options




Map Legend


Flown Route
Filed Route
Departure Airport
Arrival Airport
Navaid (VOR, NDB)
Fix

Horizontal Profiles

Position Reports

Time Latitude Longitude Heading Altitude Ground
Speed
05-Apr-23 13:24 35.057056 -118.157644 270 2804ft 0kts
05-Apr-23 13:25 35.057056 -118.157644 270 2804ft 0kts
05-Apr-23 13:26 35.057056 -118.157644 269 2804ft 0kts
05-Apr-23 13:27 35.057056 -118.157644 269 2804ft 0kts
05-Apr-23 13:28 35.057056 -118.157644 269 2804ft 0kts
05-Apr-23 13:29 35.057056 -118.157644 269 2804ft 0kts
05-Apr-23 13:30 35.057056 -118.157644 269 2804ft 0kts
05-Apr-23 13:31 35.057056 -118.157644 269 2804ft 0kts
05-Apr-23 13:32 35.057056 -118.157644 269 2804ft 0kts
05-Apr-23 13:33 35.057056 -118.157644 269 2804ft 0kts
05-Apr-23 13:34 35.057118 -118.157748 332 2809ft 4kts
05-Apr-23 13:35 35.057646 -118.155305 91 2807ft 15kts
05-Apr-23 13:36 35.057636 -118.149708 91 2808ft 13kts
05-Apr-23 13:37 35.057613 -118.143942 89 2803ft 21kts
05-Apr-23 13:38 35.058435 -118.142571 0 2805ft 0kts
05-Apr-23 13:39 35.058434 -118.142571 0 2806ft 0kts
05-Apr-23 13:40 35.058434 -118.142571 0 2806ft 0kts
05-Apr-23 13:41 35.058434 -118.142571 0 2806ft 0kts
05-Apr-23 13:42 35.058434 -118.142571 0 2806ft 0kts
05-Apr-23 13:43 35.059202 -118.144808 270 2808ft 57kts
05-Apr-23 13:45 35.057629 -118.181193 249 3406ft 136kts
05-Apr-23 13:46 35.024166 -118.181761 147 3965ft 140kts
05-Apr-23 13:47 34.988482 -118.170519 174 4642ft 132kts
05-Apr-23 13:48 34.951294 -118.168216 172 5369ft 143kts
05-Apr-23 13:49 34.907631 -118.162199 169 5506ft 168kts
05-Apr-23 13:50 34.860094 -118.154549 166 5497ft 173kts
05-Apr-23 13:51 34.813886 -118.139555 156 5493ft 165kts
05-Apr-23 13:52 34.772505 -118.120213 154 5509ft 157kts
05-Apr-23 13:53 34.731353 -118.101023 156 5499ft 157kts
05-Apr-23 13:54 34.690210 -118.082356 154 5516ft 159kts
05-Apr-23 13:55 34.648324 -118.062421 147 5517ft 162kts
05-Apr-23 13:56 34.617156 -118.023804 125 5522ft 160kts
05-Apr-23 13:57 34.587488 -117.983661 132 5515ft 161kts
05-Apr-23 13:58 34.558617 -117.942144 113 5477ft 158kts
05-Apr-23 13:59 34.547103 -117.891168 101 5481ft 157kts
05-Apr-23 14:00 34.538679 -117.839126 91 5462ft 156kts
05-Apr-23 14:01 34.539861 -117.786741 84 5456ft 154kts
05-Apr-23 14:02 34.543246 -117.734676 84 5453ft 155kts
05-Apr-23 14:03 34.546557 -117.683068 85 5427ft 151kts
05-Apr-23 14:04 34.549946 -117.631812 84 5486ft 155kts
05-Apr-23 14:05 34.534640 -117.583382 121 5485ft 158kts
05-Apr-23 14:06 34.508247 -117.540078 125 5485ft 160kts
05-Apr-23 14:07 34.481202 -117.497392 125 5497ft 160kts
05-Apr-23 14:08 34.449315 -117.460034 143 5479ft 162kts
05-Apr-23 14:09 34.411341 -117.429556 145 5485ft 164kts
05-Apr-23 14:10 34.371304 -117.404849 186 5540ft 164kts
05-Apr-23 14:10 34.339520 -117.427320 221 5714ft 159kts
05-Apr-23 14:11 34.301115 -117.448243 192 6035ft 160kts
05-Apr-23 14:13 34.252598 -117.438062 147 6235ft 163kts
05-Apr-23 14:14 34.215471 -117.403631 146 5774ft 169kts
05-Apr-23 14:14 34.183856 -117.377038 144 5149ft 160kts
05-Apr-23 14:15 34.159566 -117.337693 109 5042ft 149kts
05-Apr-23 14:16 34.168664 -117.290609 18 4507ft 160kts
05-Apr-23 14:17 34.178288 -117.263477 138 3866ft 156kts
05-Apr-23 14:19 34.148173 -117.220629 127 3372ft 138kts
05-Apr-23 14:19 34.125799 -117.201301 164 2707ft 105kts
05-Apr-23 14:20 34.103249 -117.209287 245 1534ft 83kts
05-Apr-23 14:21 34.097188 -117.228762 251 1140ft 27kts
05-Apr-23 14:22 34.096089 -117.236272 329 1121ft 0kts
05-Apr-23 14:23 34.096089 -117.236272 329 1121ft 0kts
05-Apr-23 14:24 34.096089 -117.236272 329 1121ft 0kts
05-Apr-23 14:25 34.096833 -117.236157 54 1122ft 15kts
05-Apr-23 14:26 34.098335 -117.231119 70 1137ft 14kts
05-Apr-23 14:27 34.100193 -117.227045 325 1145ft 10kts
05-Apr-23 14:28 34.101662 -117.227922 280 1145ft 0kts
05-Apr-23 14:29 34.101662 -117.227921 280 1145ft 0kts
05-Apr-23 14:30 34.101662 -117.227921 280 1145ft 0kts

Navigation Log

Ident Type
Flight plan parsing failed, navigation log unavailable